Time;durP1;ratioP1;P1;durP2;ratioP2;P2;SDS_P1;SDS_P2;PMS_P1;PMS_P2;Temp;Humidity;BMP_temperature;BMP_pressure;BME280_temperature;BME280_humidity;BME280_pressure;Samples;Min_cycle;Max_cycle;Signal;HPM_P1;HPM_P2
2021/06/20 00:00:36;;;;;;;6.38;3.45;;;24.30;59.80;;;;;;4960963;28;20019;-73
2021/06/20 00:03:04;;;;;;;7.25;3.25;;;24.20;60.70;;;;;;4930881;28;20167;-73
2021/06/20 00:05:33;;;;;;;4.95;2.95;;;24.20;61.30;;;;;;4961132;28;20031;-73
2021/06/20 00:08:02;;;;;;;7.65;3.38;;;24.10;61.00;;;;;;4960759;28;20026;-73
2021/06/20 00:10:29;;;;;;;4.90;3.28;;;24.10;60.50;;;;;;4961852;28;20034;-73
2021/06/20 00:12:57;;;;;;;7.13;3.42;;;24.00;61.40;;;;;;4959384;28;20035;-73
2021/06/20 00:15:25;;;;;;;4.72;3.28;;;24.10;60.70;;;;;;4957857;28;20034;-75
2021/06/20 00:17:51;;;;;;;4.55;4.15;;;24.10;61.50;;;;;;4960279;28;20020;-75
2021/06/20 00:20:20;;;;;;;10.50;4.80;;;24.10;61.60;;;;;;4988688;23;20042;-69
2021/06/20 00:22:46;;;;;;;6.15;3.55;;;24.10;62.00;;;;;;4989846;28;20448;-69
2021/06/20 00:25:12;;;;;;;3.80;3.38;;;24.10;62.70;;;;;;4987617;28;20039;-70
2021/06/20 00:27:38;;;;;;;4.95;4.05;;;24.10;62.50;;;;;;4990411;28;20103;-70
2021/06/20 00:30:10;;;;;;;7.97;5.18;;;24.10;61.70;;;;;;4985846;28;20030;-70
2021/06/20 00:32:36;;;;;;;6.00;4.15;;;24.10;61.70;;;;;;4990928;28;20031;-70
2021/06/20 00:35:02;;;;;;;4.70;4.13;;;24.30;61.20;;;;;;4987604;28;20076;-70
2021/06/20 00:37:28;;;;;;;10.60;5.10;;;24.40;61.00;;;;;;4990485;28;20096;-70
2021/06/20 00:39:53;;;;;;;7.05;4.38;;;24.40;61.60;;;;;;4988187;28;20508;-70
2021/06/20 00:42:19;;;;;;;6.35;3.67;;;24.50;61.20;;;;;;4989044;28;20113;-70
2021/06/20 00:44:46;;;;;;;9.00;4.00;;;24.50;61.50;;;;;;4988366;28;20378;-70
2021/06/20 00:47:12;;;;;;;5.07;4.60;;;24.50;61.30;;;;;;4988323;28;20100;-70
2021/06/20 00:49:37;;;;;;;5.60;3.55;;;24.50;61.30;;;;;;4987132;28;20077;-70
2021/06/20 00:52:04;;;;;;;4.80;3.75;;;24.50;61.50;;;;;;4990365;28;20033;-70
2021/06/20 00:54:29;;;;;;;6.55;4.10;;;24.50;61.00;;;;;;4988510;28;20061;-70
2021/06/20 00:56:55;;;;;;;3.95;3.42;;;24.50;60.50;;;;;;4988424;28;20497;-70
2021/06/20 00:59:20;;;;;;;6.78;4.05;;;24.50;61.10;;;;;;4989498;28;20033;-70
2021/06/20 01:01:46;;;;;;;4.07;3.20;;;24.50;60.90;;;;;;4989090;28;20601;-70
2021/06/20 01:04:12;;;;;;;4.00;3.60;;;24.50;61.40;;;;;;4986619;28;20038;-70
2021/06/20 01:06:38;;;;;;;6.78;4.13;;;24.50;61.50;;;;;;4987667;28;20144;-70
2021/06/20 01:09:04;;;;;;;4.65;4.18;;;24.50;61.50;;;;;;4986898;28;20030;-70
2021/06/20 01:11:30;;;;;;;5.97;4.43;;;24.50;61.30;;;;;;4989937;28;20841;-70
2021/06/20 01:13:56;;;;;;;7.25;4.78;;;24.50;60.90;;;;;;4987148;28;20034;-70
2021/06/20 01:16:25;;;;;;;6.75;5.22;;;24.40;61.40;;;;;;4987279;28;20034;-70
2021/06/20 01:18:50;;;;;;;6.05;5.38;;;24.40;61.80;;;;;;4986208;28;20401;-70
2021/06/20 01:21:16;;;;;;;5.57;5.05;;;24.40;62.00;;;;;;4989337;28;20105;-70
2021/06/20 01:23:42;;;;;;;9.20;5.78;;;24.40;61.80;;;;;;4988379;28;20058;-70
2021/06/20 01:26:07;;;;;;;7.90;5.22;;;24.30;62.00;;;;;;4988181;28;20432;-70
2021/06/20 01:28:41;;;;;;;6.65;5.07;;;24.30;62.40;;;;;;4986781;28;20058;-70
2021/06/20 01:31:11;;;;;;;6.90;5.90;;;24.30;62.10;;;;;;4988790;28;20109;-70
2021/06/20 01:33:37;;;;;;;6.63;5.32;;;24.30;62.40;;;;;;4987887;28;20039;-70
2021/06/20 01:36:03;;;;;;;6.15;4.72;;;24.30;62.10;;;;;;4987680;28;20018;-70
2021/06/20 01:38:29;;;;;;;7.28;6.57;;;24.30;62.20;;;;;;4987286;28;20034;-69
2021/06/20 01:40:55;;;;;;;10.35;6.32;;;24.40;62.90;;;;;;4983107;28;20548;-70
2021/06/20 01:43:20;;;;;;;9.50;6.60;;;24.40;62.90;;;;;;4989716;28;20137;-70
2021/06/20 01:45:46;;;;;;;7.47;6.05;;;24.40;62.70;;;;;;4987031;28;20040;-70
2021/06/20 01:48:12;;;;;;;9.07;6.05;;;24.40;63.00;;;;;;4987029;28;20029;-70
2021/06/20 01:50:37;;;;;;;8.02;6.55;;;24.40;62.60;;;;;;4987227;28;20033;-70
2021/06/20 01:53:12;;;;;;;9.13;5.72;;;24.40;62.90;;;;;;4987482;28;20499;-70
2021/06/20 01:55:39;;;;;;;10.25;5.30;;;24.40;63.10;;;;;;4992736;28;20019;-70
2021/06/20 01:58:06;;;;;;;7.22;5.57;;;24.30;62.40;;;;;;4991172;28;20033;-70
2021/06/20 02:00:33;;;;;;;6.65;5.88;;;24.30;63.20;;;;;;4991963;28;20053;-70
2021/06/20 02:03:12;;;;;;;6.28;5.68;;;24.20;63.40;;;;;;4991363;28;20030;-70
2021/06/20 02:05:38;;;;;;;7.00;6.35;;;24.10;63.80;;;;;;4991248;28;20531;-70
2021/06/20 02:08:04;;;;;;;11.07;5.85;;;24.00;64.00;;;;;;4990402;28;20046;-70
2021/06/20 02:10:30;;;;;;;7.68;6.18;;;24.00;64.50;;;;;;5006655;28;20026;-70
2021/06/20 02:12:55;;;;;;;9.60;5.60;;;23.90;64.20;;;;;;4988319;28;20057;-70
2021/06/20 02:15:22;;;;;;;8.98;5.55;;;23.80;65.40;;;;;;4990623;28;20022;-70
2021/06/20 02:17:48;;;;;;;12.02;5.75;;;23.70;65.80;;;;;;4991045;28;20112;-70
2021/06/20 02:20:18;;;;;;;8.90;6.18;;;23.60;65.50;;;;;;4988015;28;20034;-70
2021/06/20 02:22:44;;;;;;;11.63;5.78;;;23.60;65.80;;;;;;4991126;28;20701;-70
2021/06/20 02:25:13;;;;;;;8.55;6.40;;;23.60;66.20;;;;;;4993016;28;20022;-70
2021/06/20 02:27:39;;;;;;;8.23;5.60;;;23.60;66.10;;;;;;5006677;28;20052;-71
2021/06/20 02:30:06;;;;;;;9.82;5.95;;;23.60;66.30;;;;;;4991489;28;20088;-71
2021/06/20 02:32:32;;;;;;;15.38;6.20;;;23.60;66.40;;;;;;4990893;28;20029;-71
2021/06/20 02:34:57;;;;;;;11.75;6.25;;;23.70;66.10;;;;;;4993091;28;20098;-72
2021/06/20 02:37:24;;;;;;;8.30;6.65;;;23.60;66.30;;;;;;4989591;28;20102;-71
2021/06/20 02:39:50;;;;;;;10.35;5.07;;;23.60;66.70;;;;;;4991041;28;20030;-71
2021/06/20 02:42:16;;;;;;;7.97;6.18;;;23.60;66.30;;;;;;4991303;28;20462;-71
2021/06/20 02:44:42;;;;;;;11.30;5.45;;;23.70;65.90;;;;;;4991516;28;20027;-72
2021/06/20 02:47:09;;;;;;;10.00;5.75;;;23.90;65.80;;;;;;4990155;28;20036;-71
2021/06/20 02:49:36;;;;;;;7.47;5.90;;;24.10;65.40;;;;;;4990208;28;20034;-72
2021/06/20 02:52:04;;;;;;;8.20;6.60;;;24.30;65.30;;;;;;4991212;28;20033;-72
2021/06/20 02:54:30;;;;;;;7.28;6.57;;;24.30;65.50;;;;;;4990333;28;20034;-71
2021/06/20 02:56:57;;;;;;;7.28;6.20;;;24.20;65.70;;;;;;4990426;28;20038;-71
2021/06/20 02:59:22;;;;;;;12.90;5.93;;;24.20;65.90;;;;;;4989880;28;20026;-71
2021/06/20 03:01:48;;;;;;;8.15;6.45;;;24.10;65.10;;;;;;4989557;28;20588;-71
2021/06/20 03:04:13;;;;;;;11.00;6.32;;;24.20;65.70;;;;;;4991861;28;20026;-71
2021/06/20 03:06:39;;;;;;;13.10;7.07;;;24.20;65.50;;;;;;4988844;28;20041;-71
2021/06/20 03:09:05;;;;;;;6.15;5.63;;;24.10;65.20;;;;;;4990938;28;20068;-71
2021/06/20 03:11:32;;;;;;;8.30;5.18;;;24.10;65.70;;;;;;4988851;28;20446;-71
2021/06/20 03:13:57;;;;;;;10.95;6.50;;;24.00;65.30;;;;;;4992277;28;20022;-71
2021/06/20 03:16:23;;;;;;;8.18;5.63;;;24.00;65.60;;;;;;4992101;28;20042;-72
2021/06/20 03:18:49;;;;;;;9.25;5.97;;;24.00;65.30;;;;;;4988137;28;20027;-71
2021/06/20 03:21:16;;;;;;;6.40;5.70;;;24.00;65.50;;;;;;4985969;28;20089;-71
2021/06/20 03:23:43;;;;;;;9.85;6.15;;;23.90;66.10;;;;;;4991703;28;20153;-71
2021/06/20 03:26:09;;;;;;;6.20;5.65;;;23.80;66.40;;;;;;4988645;28;20125;-71
2021/06/20 03:28:35;;;;;;;8.60;6.30;;;23.70;66.20;;;;;;5005952;28;20145;-71
2021/06/20 03:31:00;;;;;;;7.47;5.70;;;23.70;66.50;;;;;;4989115;28;20056;-72
2021/06/20 03:33:26;;;;;;;7.20;5.47;;;23.80;66.20;;;;;;4990517;28;20038;-71
2021/06/20 03:35:51;;;;;;;8.45;6.22;;;23.90;66.10;;;;;;4992259;28;20513;-72
2021/06/20 03:38:17;;;;;;;7.57;6.18;;;24.00;66.00;;;;;;4988096;28;20030;-72
2021/06/20 03:40:42;;;;;;;6.72;5.50;;;24.10;66.00;;;;;;4991555;28;20056;-71
2021/06/20 03:43:08;;;;;;;9.85;4.35;;;24.20;65.80;;;;;;4990575;28;20054;-71
2021/06/20 03:45:33;;;;;;;7.28;4.45;;;24.10;65.40;;;;;;4990459;28;20030;-72
2021/06/20 03:47:59;;;;;;;10.10;5.55;;;24.10;65.50;;;;;;4985399;28;20058;-71
2021/06/20 03:50:25;;;;;;;4.70;4.03;;;24.10;65.50;;;;;;4990908;28;20153;-71
2021/06/20 03:52:51;;;;;;;4.75;3.97;;;24.10;65.50;;;;;;4988670;28;20031;-71
2021/06/20 03:55:17;;;;;;;4.95;4.13;;;24.10;65.00;;;;;;4991551;28;20022;-71
2021/06/20 03:57:43;;;;;;;7.10;3.00;;;24.00;65.20;;;;;;4988392;28;20019;-71
2021/06/20 04:00:11;;;;;;;5.85;2.08;;;24.00;66.10;;;;;;4988650;28;20027;-71
2021/06/20 04:02:36;;;;;;;7.78;1.90;;;23.90;68.10;;;;;;4986784;28;20477;-71
2021/06/20 04:05:03;;;;;;;9.55;1.88;;;23.60;69.80;;;;;;4990979;28;20038;-71
2021/06/20 04:07:28;;;;;;;3.67;1.27;;;23.40;71.30;;;;;;4988980;28;20037;-71
2021/06/20 04:09:54;;;;;;;4.57;1.30;;;23.20;71.80;;;;;;4990077;28;20018;-71
2021/06/20 04:12:19;;;;;;;4.97;1.38;;;22.90;73.50;;;;;;4987742;28;20117;-71
2021/06/20 04:14:45;;;;;;;4.05;1.08;;;22.80;74.10;;;;;;4990976;28;20026;-71
2021/06/20 04:17:11;;;;;;;5.68;0.90;;;22.60;75.40;;;;;;4985380;28;20027;-71
2021/06/20 04:19:36;;;;;;;4.20;1.65;;;22.50;76.40;;;;;;4984843;28;20030;-71
2021/06/20 04:22:02;;;;;;;5.30;0.88;;;22.30;77.70;;;;;;4990567;28;20026;-71
2021/06/20 04:24:28;;;;;;;3.78;1.10;;;22.20;78.40;;;;;;4990741;28;20030;-71
2021/06/20 04:26:53;;;;;;;3.15;1.38;;;22.10;79.50;;;;;;4989948;28;20113;-71
2021/06/20 04:29:19;;;;;;;7.63;1.48;;;22.00;80.40;;;;;;4988329;28;20026;-72
2021/06/20 04:31:44;;;;;;;2.45;1.48;;;22.00;81.60;;;;;;4989742;28;20049;-71
2021/06/20 04:34:10;;;;;;;4.32;1.60;;;22.10;82.20;;;;;;4989528;28;20068;-71
2021/06/20 04:36:36;;;;;;;3.80;0.98;;;22.20;81.70;;;;;;4988390;28;20038;-73
2021/06/20 04:39:06;;;;;;;4.75;1.10;;;22.30;81.40;;;;;;4986347;28;20050;-74
2021/06/20 04:41:32;;;;;;;7.93;1.58;;;22.10;83.70;;;;;;4990406;28;20031;-73
2021/06/20 04:43:59;;;;;;;9.35;2.22;;;21.90;84.00;;;;;;4990150;28;20628;-72
2021/06/20 04:46:37;;;;;;;12.27;2.20;;;21.50;88.00;;;;;;4990514;28;20040;-72
2021/06/20 04:49:09;;;;;;;6.85;1.20;;;21.20;89.10;;;;;;4988341;28;20056;-72
2021/06/20 04:51:40;;;;;;;3.63;1.55;;;21.00;89.90;;;;;;4989579;28;20057;-72
2021/06/20 04:54:06;;;;;;;3.45;1.02;;;20.90;90.50;;;;;;4986642;28;20125;-73
2021/06/20 04:56:32;;;;;;;4.43;1.42;;;20.80;91.10;;;;;;4990497;28;20022;-72
2021/06/20 04:58:58;;;;;;;7.35;2.45;;;20.70;91.10;;;;;;4988131;28;20109;-72
2021/06/20 05:01:23;;;;;;;5.30;1.33;;;20.80;90.80;;;;;;4987842;28;20106;-71
2021/06/20 05:03:49;;;;;;;5.00;1.10;;;20.80;91.20;;;;;;4988867;28;20026;-71
2021/06/20 05:06:15;;;;;;;9.73;2.10;;;20.80;91.40;;;;;;4989139;28;20062;-71
2021/06/20 05:08:41;;;;;;;7.22;1.77;;;20.80;91.60;;;;;;4987507;28;20117;-71
2021/06/20 05:11:06;;;;;;;7.13;2.15;;;20.80;92.20;;;;;;4986048;28;20488;-72
2021/06/20 05:13:32;;;;;;;8.73;1.85;;;20.70;92.10;;;;;;4989555;28;20029;-72
2021/06/20 05:15:58;;;;;;;8.63;1.95;;;20.70;92.50;;;;;;4988569;28;20022;-72
2021/06/20 05:18:23;;;;;;;6.53;2.20;;;20.70;91.80;;;;;;4987536;28;20038;-71
2021/06/20 05:20:49;;;;;;;4.13;1.40;;;20.60;91.80;;;;;;4988926;28;20035;-71
2021/06/20 05:23:14;;;;;;;7.40;4.18;;;20.50;92.30;;;;;;4988739;28;20061;-72
2021/06/20 05:25:40;;;;;;;10.35;3.30;;;20.50;92.10;;;;;;4988759;28;21194;-72
2021/06/20 05:28:05;;;;;;;9.57;3.13;;;20.40;92.40;;;;;;4981523;28;20646;-71
2021/06/20 05:30:31;;;;;;;12.10;3.83;;;20.30;92.90;;;;;;4988137;28;20456;-71
2021/06/20 05:32:56;;;;;;;7.50;2.38;;;20.20;93.10;;;;;;4988218;28;20046;-71
2021/06/20 05:35:22;;;;;;;8.52;2.38;;;20.20;93.70;;;;;;4989186;28;20029;-71
2021/06/20 05:37:47;;;;;;;6.55;2.25;;;20.20;94.10;;;;;;4988078;28;20106;-70
2021/06/20 05:40:14;;;;;;;7.80;3.13;;;20.10;94.60;;;;;;4987797;28;20023;-70
2021/06/20 05:42:40;;;;;;;10.85;2.13;;;20.00;94.80;;;;;;4986130;28;21014;-71
2021/06/20 05:45:06;;;;;;;13.90;3.15;;;20.00;95.00;;;;;;4988921;28;20022;-71
2021/06/20 05:47:31;;;;;;;10.75;3.15;;;20.10;95.10;;;;;;4987474;28;20034;-71
2021/06/20 05:49:57;;;;;;;13.10;3.83;;;20.20;95.20;;;;;;4986794;28;20061;-71
2021/06/20 05:52:23;;;;;;;9.48;3.13;;;20.40;94.90;;;;;;4988672;28;20034;-71
2021/06/20 05:54:51;;;;;;;8.30;3.35;;;20.60;94.40;;;;;;4989560;28;20018;-71
2021/06/20 05:57:21;;;;;;;8.18;2.67;;;20.70;94.20;;;;;;4988157;28;20015;-71
2021/06/20 05:59:47;;;;;;;4.28;2.28;;;20.70;94.10;;;;;;4986921;28;20038;-71
2021/06/20 06:02:13;;;;;;;8.57;3.00;;;20.80;94.00;;;;;;4987260;28;20054;-71
2021/06/20 06:04:41;;;;;;;9.32;3.80;;;20.90;93.70;;;;;;4989568;28;20026;-71
2021/06/20 06:07:06;;;;;;;16.80;8.05;;;21.10;93.60;;;;;;4988880;28;20095;-71
2021/06/20 06:09:32;;;;;;;11.55;5.60;;;21.30;93.30;;;;;;4987573;28;20497;-71
2021/06/20 06:11:57;;;;;;;18.52;9.55;;;21.50;93.20;;;;;;4987841;28;20023;-71
2021/06/20 06:14:23;;;;;;;10.25;4.55;;;21.60;92.90;;;;;;4988141;28;20026;-71
2021/06/20 06:16:50;;;;;;;13.85;5.22;;;21.80;92.70;;;;;;4984526;28;20018;-71
2021/06/20 06:19:16;;;;;;;9.80;3.83;;;21.90;92.60;;;;;;4983903;28;20080;-71
2021/06/20 06:24:07;;;;;;;11.40;5.72;;;22.50;91.90;;;;;;5002770;23;20337;-73
2021/06/20 06:26:33;;;;;;;10.52;4.63;;;22.60;91.80;;;;;;4988290;28;20037;-73
2021/06/20 06:28:59;;;;;;;17.95;9.73;;;22.70;91.80;;;;;;4984978;28;20022;-73
2021/06/20 06:31:24;;;;;;;26.83;11.13;;;22.70;91.50;;;;;;4989306;28;20069;-72
2021/06/20 06:33:50;;;;;;;14.80;4.53;;;22.90;91.30;;;;;;4979479;28;20026;-73
2021/06/20 06:36:15;;;;;;;12.70;5.10;;;23.00;91.10;;;;;;4979484;28;20031;-73
2021/06/20 06:38:41;;;;;;;29.38;14.80;;;23.10;91.10;;;;;;4973573;28;20033;-73
2021/06/20 06:41:06;;;;;;;18.80;10.18;;;23.30;90.70;;;;;;4979147;28;20098;-73
2021/06/20 06:43:32;;;;;;;12.68;5.38;;;23.60;90.40;;;;;;4981618;28;20033;-73
2021/06/20 06:45:59;;;;;;;8.95;5.07;;;24.00;90.40;;;;;;4982927;28;20041;-73
2021/06/20 06:48:25;;;;;;;12.05;3.83;;;24.30;90.20;;;;;;4978032;28;20030;-73
2021/06/20 06:50:50;;;;;;;15.95;9.13;;;24.50;89.70;;;;;;4982816;28;20093;-73
2021/06/20 06:53:16;;;;;;;29.33;15.23;;;24.80;88.30;;;;;;4980009;28;20026;-73
2021/06/20 06:55:42;;;;;;;10.77;5.30;;;25.00;87.70;;;;;;4982871;28;20505;-72
2021/06/20 06:58:07;;;;;;;11.25;5.53;;;25.30;87.10;;;;;;4979310;28;20023;-73
2021/06/20 07:00:33;;;;;;;16.52;8.23;;;25.50;86.10;;;;;;4982268;28;20031;-74
2021/06/20 07:02:58;;;;;;;8.07;4.00;;;25.50;85.50;;;;;;4981057;28;20026;-73
2021/06/20 07:05:26;;;;;;;12.23;5.00;;;25.70;84.90;;;;;;4976778;28;20039;-72
2021/06/20 07:07:51;;;;;;;8.45;4.50;;;25.80;84.90;;;;;;4976227;28;20061;-75
2021/06/20 07:10:17;;;;;;;11.60;4.45;;;25.90;84.40;;;;;;4975354;28;20034;-77
2021/06/20 07:12:42;;;;;;;16.40;11.55;;;26.10;84.00;;;;;;4980582;28;20026;-77
2021/06/20 07:15:08;;;;;;;11.57;5.03;;;26.20;82.50;;;;;;4993871;28;20030;-78
2021/06/20 07:17:35;;;;;;;8.98;4.63;;;26.40;81.70;;;;;;4981257;28;20102;-78
2021/06/20 07:20:03;;;;;;;8.63;4.10;;;26.40;81.20;;;;;;4978568;28;20027;-75
2021/06/20 07:22:29;;;;;;;13.88;3.92;;;26.40;81.30;;;;;;4978382;28;20058;-75
2021/06/20 07:24:55;;;;;;;8.07;3.65;;;26.40;81.30;;;;;;4978236;28;20760;-74
2021/06/20 07:27:21;;;;;;;11.00;3.08;;;26.40;81.20;;;;;;4980319;28;20030;-75
2021/06/20 07:29:48;;;;;;;7.47;3.60;;;26.40;80.70;;;;;;4978989;28;20031;-75
2021/06/20 07:32:13;;;;;;;14.25;4.13;;;26.40;80.30;;;;;;4980336;28;20144;-75
2021/06/20 07:34:39;;;;;;;5.75;4.32;;;26.50;80.20;;;;;;4978306;28;20125;-75
2021/06/20 07:37:05;;;;;;;11.18;3.85;;;26.50;79.40;;;;;;4978052;28;20038;-75
2021/06/20 07:39:31;;;;;;;8.15;3.05;;;26.50;79.40;;;;;;4977566;28;20027;-75
2021/06/20 07:41:58;;;;;;;10.75;3.45;;;26.60;78.30;;;;;;4981053;28;20082;-75
2021/06/20 07:44:23;;;;;;;9.85;4.28;;;26.70;78.90;;;;;;4978618;28;20466;-81
2021/06/20 07:46:49;;;;;;;10.32;3.78;;;27.00;78.20;;;;;;4975185;28;20046;-73
2021/06/20 07:49:14;;;;;;;8.52;4.28;;;27.20;78.00;;;;;;4979026;28;20038;-74
2021/06/20 07:51:40;;;;;;;8.30;3.72;;;27.60;77.20;;;;;;4980378;28;20112;-74
2021/06/20 07:54:05;;;;;;;7.90;3.55;;;28.00;75.90;;;;;;4980930;28;20114;-74
2021/06/20 07:56:31;;;;;;;8.05;3.33;;;28.20;74.80;;;;;;4980558;28;20046;-74
2021/06/20 07:58:57;;;;;;;9.98;3.83;;;28.10;74.70;;;;;;4981118;28;20027;-74
2021/06/20 08:01:24;;;;;;;10.10;4.10;;;28.10;75.30;;;;;;4974903;28;20478;-75
2021/06/20 08:03:49;;;;;;;7.43;3.92;;;28.30;74.30;;;;;;4979018;28;20046;-75
2021/06/20 08:06:15;;;;;;;13.15;3.90;;;28.40;74.00;;;;;;4975149;28;20041;-71
2021/06/20 08:08:40;;;;;;;11.23;3.83;;;28.50;72.70;;;;;;4975855;28;20105;-71
2021/06/20 08:11:06;;;;;;;8.32;3.38;;;28.50;72.50;;;;;;4980131;28;20417;-72
2021/06/20 08:13:32;;;;;;;12.48;3.97;;;28.60;71.80;;;;;;4976486;28;20026;-71
2021/06/20 08:15:58;;;;;;;8.15;2.90;;;28.70;71.50;;;;;;4978180;28;20049;-74
2021/06/20 08:18:23;;;;;;;6.53;3.15;;;28.60;70.20;;;;;;4977037;28;20022;-74
2021/06/20 08:20:49;;;;;;;11.07;3.00;;;28.40;69.90;;;;;;4979130;28;20452;-74
2021/06/20 08:23:14;;;;;;;5.50;2.67;;;28.30;70.30;;;;;;4980319;28;20045;-74
2021/06/20 08:25:40;;;;;;;13.13;3.72;;;28.30;70.40;;;;;;4980590;28;20031;-74
2021/06/20 08:28:06;;;;;;;11.23;3.42;;;28.40;69.80;;;;;;4980568;28;20171;-74
2021/06/20 08:30:32;;;;;;;3.90;2.30;;;28.50;69.30;;;;;;4976652;28;20038;-74
2021/06/20 08:32:57;;;;;;;7.13;3.28;;;28.40;69.20;;;;;;4976688;28;20039;-76
2021/06/20 08:35:23;;;;;;;4.65;3.00;;;28.20;69.60;;;;;;4975553;28;20027;-77
2021/06/20 08:37:49;;;;;;;8.60;3.00;;;28.10;70.10;;;;;;4978333;28;20516;-76
2021/06/20 08:40:15;;;;;;;8.98;3.97;;;28.10;70.20;;;;;;4974687;28;20030;-76
2021/06/20 08:42:40;;;;;;;5.60;2.67;;;28.20;70.40;;;;;;4980399;28;20037;-76
2021/06/20 08:45:07;;;;;;;5.93;2.90;;;28.30;69.40;;;;;;4980544;28;20031;-76
2021/06/20 08:47:34;;;;;;;9.63;2.85;;;28.40;69.60;;;;;;4979324;28;20452;-76
2021/06/20 08:49:59;;;;;;;6.20;2.78;;;28.50;69.40;;;;;;4978706;28;20109;-77
2021/06/20 08:52:25;;;;;;;6.22;2.42;;;28.70;69.20;;;;;;4976202;28;20157;-77
2021/06/20 08:55:00;;;;;;;8.02;2.72;;;28.80;68.30;;;;;;4979409;28;20125;-77
2021/06/20 08:57:31;;;;;;;10.02;2.78;;;28.80;67.00;;;;;;4979416;28;20509;-77
2021/06/20 08:59:57;;;;;;;6.38;2.22;;;28.80;65.70;;;;;;4978963;28;20382;-76
2021/06/20 09:02:27;;;;;;;5.35;2.80;;;28.70;65.90;;;;;;4978893;28;20025;-76
2021/06/20 09:04:57;;;;;;;6.60;2.58;;;28.70;66.20;;;;;;4979700;28;20026;-77
2021/06/20 09:07:41;;;;;;;8.30;3.72;;;28.80;66.10;;;;;;4978740;28;20365;-77
2021/06/20 09:10:09;;;;;;;4.30;2.25;;;28.90;65.80;;;;;;4979488;28;20086;-77
2021/06/20 09:12:43;;;;;;;6.15;2.90;;;29.00;65.30;;;;;;4980013;28;20527;-77
2021/06/20 09:15:09;;;;;;;8.82;3.22;;;29.00;65.20;;;;;;4980291;28;20121;-77
2021/06/20 09:17:36;;;;;;;6.47;3.03;;;29.00;65.20;;;;;;4979229;28;20532;-76
2021/06/20 09:20:04;;;;;;;6.90;3.50;;;29.10;65.10;;;;;;4977891;28;20030;-77
2021/06/20 09:22:30;;;;;;;5.57;3.03;;;29.20;63.80;;;;;;4979183;28;20114;-77
2021/06/20 09:25:05;;;;;;;7.13;4.15;;;29.10;64.30;;;;;;4980306;28;20098;-77
2021/06/20 09:27:30;;;;;;;9.27;4.67;;;29.00;64.50;;;;;;4978452;28;20034;-77
2021/06/20 09:30:09;;;;;;;6.28;2.78;;;29.10;63.90;;;;;;4978313;28;20058;-77
2021/06/20 09:32:35;;;;;;;6.30;2.95;;;29.30;63.50;;;;;;4979834;28;20453;-77
2021/06/20 09:35:03;;;;;;;5.32;2.28;;;29.50;63.30;;;;;;4980139;28;20026;-77
2021/06/20 09:37:28;;;;;;;4.68;2.25;;;29.40;62.50;;;;;;4978732;28;20042;-77
2021/06/20 09:39:54;;;;;;;4.55;2.08;;;29.20;62.70;;;;;;4978184;28;20039;-77
2021/06/20 09:42:20;;;;;;;4.63;2.42;;;29.00;62.80;;;;;;4975818;28;20050;-79
2021/06/20 09:44:49;;;;;;;6.07;2.20;;;28.90;63.40;;;;;;4999043;28;20567;-77
2021/06/20 09:47:18;;;;;;;6.47;2.78;;;28.90;63.50;;;;;;4999494;28;20459;-77
2021/06/20 09:49:46;;;;;;;12.88;3.58;;;28.90;63.50;;;;;;4998681;28;20045;-77
2021/06/20 09:52:12;;;;;;;4.82;2.25;;;29.00;63.00;;;;;;4998168;28;21067;-77
2021/06/20 09:54:55;;;;;;;12.95;3.35;;;29.00;61.90;;;;;;4999093;28;20109;-77
2021/06/20 09:57:22;;;;;;;11.68;3.22;;;28.70;62.40;;;;;;4999095;28;20021;-77
2021/06/20 09:59:59;;;;;;;6.43;3.00;;;28.60;62.10;;;;;;4998246;28;20034;-77
2021/06/20 10:02:30;;;;;;;4.22;2.20;;;28.50;62.60;;;;;;4998009;28;20049;-77
2021/06/20 10:04:56;;;;;;;8.25;2.78;;;28.60;63.30;;;;;;4997721;28;20062;-77
2021/06/20 10:07:26;;;;;;;4.05;2.60;;;28.70;63.30;;;;;;4998798;28;20026;-76
2021/06/20 10:09:52;;;;;;;4.35;1.70;;;28.90;63.20;;;;;;4998797;28;20022;-76
2021/06/20 10:12:18;;;;;;;7.78;2.05;;;29.00;63.30;;;;;;4997972;28;20065;-76
2021/06/20 10:14:46;;;;;;;6.93;2.50;;;29.20;62.90;;;;;;4982139;28;20092;-77
2021/06/20 10:17:15;;;;;;;4.38;2.53;;;29.30;62.30;;;;;;5002424;28;20014;-77
2021/06/20 10:19:49;;;;;;;4.65;2.22;;;29.30;61.20;;;;;;5001764;28;20033;-76
2021/06/20 10:22:16;;;;;;;6.78;2.33;;;29.40;61.10;;;;;;4998160;28;20563;-77
2021/06/20 10:24:48;;;;;;;4.40;2.25;;;29.40;60.80;;;;;;5002152;28;20034;-76
2021/06/20 10:27:33;;;;;;;5.65;1.80;;;29.40;61.30;;;;;;5002611;28;20096;-77
2021/06/20 10:30:04;;;;;;;5.93;2.38;;;29.60;61.50;;;;;;5001196;28;20038;-77
2021/06/20 10:32:37;;;;;;;5.68;2.28;;;29.60;61.20;;;;;;5002805;28;20541;-76
2021/06/20 10:35:08;;;;;;;4.85;2.38;;;29.70;60.90;;;;;;5000259;28;20026;-75
2021/06/20 10:37:38;;;;;;;8.38;2.60;;;29.90;60.80;;;;;;4998262;28;20076;-74
2021/06/20 10:40:17;;;;;;;10.25;2.70;;;30.30;61.00;;;;;;4993819;28;20053;-74
2021/06/20 10:42:43;;;;;;;8.55;2.47;;;30.50;60.30;;;;;;5002362;28;20018;-75
2021/06/20 10:45:10;;;;;;;7.70;3.03;;;30.60;60.20;;;;;;4996654;28;20106;-77
2021/06/20 10:47:37;;;;;;;5.70;2.92;;;30.80;59.80;;;;;;4998096;28;20029;-76
2021/06/20 10:50:10;;;;;;;4.43;2.38;;;31.00;59.30;;;;;;4995750;28;20026;-80
2021/06/20 10:52:36;;;;;;;5.82;2.20;;;31.20;58.40;;;;;;4997781;28;20113;-76
2021/06/20 10:55:13;;;;;;;2.33;2.05;;;31.30;58.70;;;;;;5002637;28;20026;-75
2021/06/20 10:57:53;;;;;;;7.35;1.92;;;31.40;58.50;;;;;;5014385;28;20116;-77
2021/06/20 11:00:26;;;;;;;3.13;1.60;;;31.50;57.70;;;;;;5000740;28;20021;-76
2021/06/20 11:02:54;;;;;;;3.00;2.15;;;31.40;57.50;;;;;;4999372;28;20030;-76
2021/06/20 11:05:24;;;;;;;5.75;2.33;;;31.40;57.60;;;;;;4988165;28;20408;-76
2021/06/20 11:07:50;;;;;;;12.50;3.42;;;31.50;56.60;;;;;;4995173;28;20044;-74
2021/06/20 11:10:25;;;;;;;7.85;2.67;;;31.50;56.30;;;;;;4997992;28;20033;-75
2021/06/20 11:12:56;;;;;;;6.60;2.78;;;31.50;55.80;;;;;;4993049;28;20027;-77
2021/06/20 11:15:29;;;;;;;4.38;2.03;;;31.60;55.20;;;;;;5030924;28;20038;-76
2021/06/20 11:18:05;;;;;;;6.50;2.30;;;31.70;54.50;;;;;;4997523;28;20033;-76
2021/06/20 11:20:32;;;;;;;6.85;1.90;;;31.70;54.30;;;;;;5000982;28;20491;-76
2021/06/20 11:22:57;;;;;;;4.63;2.35;;;32.00;54.70;;;;;;4998497;28;20034;-75
2021/06/20 11:25:24;;;;;;;4.15;2.53;;;32.30;53.40;;;;;;5000695;28;20469;-77
2021/06/20 11:27:50;;;;;;;4.80;2.85;;;32.30;52.60;;;;;;4997386;28;20113;-77
2021/06/20 11:30:20;;;;;;;7.18;2.00;;;32.40;53.20;;;;;;5000035;28;20714;-75
2021/06/20 11:32:45;;;;;;;2.85;1.63;;;32.40;52.90;;;;;;4993322;28;20026;-74
2021/06/20 11:35:13;;;;;;;5.60;2.10;;;32.40;52.50;;;;;;5001493;28;20073;-74
2021/06/20 11:37:50;;;;;;;6.35;2.60;;;32.50;52.40;;;;;;5000509;28;20044;-73
2021/06/20 11:40:21;;;;;;;7.05;2.00;;;32.50;51.10;;;;;;5000059;28;20037;-74
2021/06/20 11:42:50;;;;;;;3.78;1.95;;;32.30;52.10;;;;;;5001694;28;20035;-76
2021/06/20 11:45:19;;;;;;;4.18;2.53;;;32.40;52.30;;;;;;5004288;28;20085;-76
2021/06/20 11:47:47;;;;;;;6.22;2.20;;;32.50;51.90;;;;;;5000436;28;20069;-77
2021/06/20 11:50:19;;;;;;;7.13;2.58;;;32.60;51.50;;;;;;4995945;28;20025;-75
2021/06/20 11:52:49;;;;;;;7.65;2.22;;;32.60;51.00;;;;;;5001654;28;20485;-76
2021/06/20 11:55:19;;;;;;;2.90;1.90;;;32.50;51.20;;;;;;4999960;28;20123;-75
2021/06/20 11:57:46;;;;;;;6.10;2.67;;;32.60;50.00;;;;;;4998137;28;20029;-75
2021/06/20 12:00:16;;;;;;;4.20;1.63;;;32.60;50.70;;;;;;4994866;28;20121;-74
2021/06/20 12:02:45;;;;;;;4.05;1.40;;;32.80;50.50;;;;;;4990418;28;20030;-74
2021/06/20 12:05:16;;;;;;;4.75;1.67;;;33.00;48.60;;;;;;4998004;28;20033;-73
2021/06/20 12:07:42;;;;;;;5.45;1.85;;;33.00;48.30;;;;;;4986458;28;20044;-73
2021/06/20 12:10:12;;;;;;;2.92;1.38;;;33.10;48.10;;;;;;4988325;28;20036;-73
2021/06/20 12:12:39;;;;;;;8.82;4.57;;;32.90;48.00;;;;;;4992343;28;20060;-73
2021/06/20 12:15:06;;;;;;;12.50;7.40;;;32.60;48.70;;;;;;4994105;28;20026;-73
2021/06/20 12:17:32;;;;;;;6.28;3.33;;;32.60;49.50;;;;;;4996125;28;20105;-72
2021/06/20 12:19:57;;;;;;;6.95;3.75;;;32.80;48.70;;;;;;4998181;28;20096;-72
2021/06/20 12:22:24;;;;;;;6.18;2.95;;;33.00;47.70;;;;;;5027566;22;20118;-72
2021/06/20 12:24:58;;;;;;;6.40;2.88;;;33.10;47.30;;;;;;5029709;28;20071;-73
2021/06/20 12:27:33;;;;;;;5.53;2.97;;;33.20;47.30;;;;;;5026814;28;20480;-74
2021/06/20 12:30:19;;;;;;;5.15;2.55;;;33.30;45.20;;;;;;5023521;28;20036;-74
2021/06/20 12:32:50;;;;;;;11.05;6.03;;;33.00;45.10;;;;;;5018572;28;21684;-73
2021/06/20 12:35:19;;;;;;;6.45;4.18;;;33.00;45.70;;;;;;5024605;28;20120;-74
2021/06/20 12:37:45;;;;;;;4.68;2.97;;;32.90;45.50;;;;;;5026805;28;20032;-74
2021/06/20 12:40:17;;;;;;;6.45;4.60;;;32.70;46.00;;;;;;5028208;28;20107;-74
2021/06/20 12:42:47;;;;;;;7.47;4.03;;;32.80;46.70;;;;;;5026118;28;20110;-73
2021/06/20 12:45:35;;;;;;;12.15;6.68;;;33.00;46.50;;;;;;5017817;28;20091;-73
2021/06/20 12:48:18;;;;;;;3.45;2.92;;;33.20;46.90;;;;;;5025948;28;20475;-74